createdAt,value
2018-11-02T00:02:06.273Z,10.70
2018-11-02T00:04:38.169Z,11.17
2018-11-02T00:07:08.732Z,10.30
2018-11-02T00:09:54.412Z,9.00
2018-11-02T00:12:25.306Z,5.83
2018-11-02T00:14:56.303Z,5.40
2018-11-02T00:17:26.915Z,11.40
2018-11-02T00:19:57.514Z,9.70
2018-11-02T00:22:28.285Z,10.07
2018-11-02T00:24:59.072Z,12.33
2018-11-02T00:27:29.896Z,11.60
2018-11-02T00:30:00.686Z,11.30
2018-11-02T00:32:31.349Z,10.47
2018-11-02T00:35:02.192Z,10.20
2018-11-02T00:37:32.999Z,11.97
2018-11-02T00:40:04.224Z,11.53
2018-11-02T00:42:35.341Z,11.57
2018-11-02T00:45:08.569Z,11.73
2018-11-02T00:47:39.168Z,10.70
2018-11-02T00:50:12.032Z,10.93
2018-11-02T00:52:42.825Z,11.97
2018-11-02T00:55:13.784Z,10.67
2018-11-02T00:57:44.368Z,11.10
2018-11-02T01:00:15.787Z,10.53
2018-11-02T01:02:46.372Z,10.47
2018-11-02T01:05:17.292Z,10.00
2018-11-02T01:07:48.456Z,10.30
2018-11-02T01:10:19.292Z,10.77
2018-11-02T01:12:50.356Z,10.20
2018-11-02T01:15:21.101Z,9.87
2018-11-02T01:17:51.996Z,10.10
2018-11-02T01:20:23.016Z,8.70
2018-11-02T01:22:53.695Z,9.53
2018-11-02T01:25:26.224Z,10.33
2018-11-02T01:27:57.983Z,10.20
2018-11-02T01:30:31.140Z,9.80
2018-11-02T01:33:02.898Z,8.93
2018-11-02T01:35:34.626Z,9.43
2018-11-02T01:38:05.944Z,9.50
2018-11-02T01:40:37.438Z,8.47
2018-11-02T01:43:08.439Z,8.10
2018-11-02T01:45:39.067Z,8.17
2018-11-02T01:48:09.896Z,8.33
2018-11-02T01:50:42.599Z,7.20
2018-11-02T01:53:13.420Z,7.80
2018-11-02T01:55:44.360Z,8.13
2018-11-02T01:58:15.072Z,7.90
2018-11-02T02:00:45.863Z,8.03
2018-11-02T02:03:16.770Z,7.50
2018-11-02T02:05:47.598Z,8.20
2018-11-02T02:08:19.070Z,8.65
2018-11-02T02:10:49.901Z,8.67
2018-11-02T02:13:20.846Z,8.10
2018-11-02T02:15:51.847Z,8.08
2018-11-02T02:18:22.486Z,8.33
2018-11-02T02:20:53.552Z,8.23
2018-11-02T02:23:24.396Z,7.37
2018-11-02T02:25:55.532Z,7.30
2018-11-02T02:28:27.268Z,7.00
2018-11-02T02:30:58.437Z,7.30
2018-11-02T02:33:29.337Z,7.57
2018-11-02T02:36:01.445Z,7.12
2018-11-02T02:38:32.322Z,7.15
2018-11-02T02:41:03.325Z,6.80
2018-11-02T02:43:34.445Z,6.22
2018-11-02T02:46:05.795Z,6.57
2018-11-02T02:48:36.423Z,6.90
2018-11-02T02:51:08.292Z,6.27
2018-11-02T02:53:40.149Z,7.20
2018-11-02T02:56:11.741Z,7.27
2018-11-02T02:58:44.320Z,7.20
2018-11-02T03:01:15.541Z,7.43
2018-11-02T03:03:46.901Z,7.45
2018-11-02T03:06:19.107Z,8.00
2018-11-02T03:08:49.752Z,7.60
2018-11-02T03:11:21.758Z,7.75
2018-11-02T03:13:52.747Z,7.93
2018-11-02T03:16:23.571Z,7.77
2018-11-02T03:18:54.661Z,8.13
2018-11-02T03:21:25.551Z,7.80
2018-11-02T03:23:56.333Z,7.20
2018-11-02T03:26:27.423Z,6.85
2018-11-02T03:28:58.321Z,7.70
2018-11-02T03:31:29.509Z,8.35
2018-11-02T03:34:00.688Z,7.50
2018-11-02T03:36:31.701Z,8.00
2018-11-02T03:39:02.531Z,8.03
2018-11-02T03:41:33.686Z,6.90
2018-11-02T03:44:04.924Z,7.40
2018-11-02T03:46:35.802Z,10.00
2018-11-02T03:49:07.953Z,9.08
2018-11-02T03:51:39.163Z,10.13
2018-11-02T03:54:10.141Z,8.00
2018-11-02T03:56:41.380Z,6.78
2018-11-02T03:59:12.784Z,6.33
2018-11-02T04:01:44.049Z,6.22
2018-11-02T04:04:15.339Z,5.15
2018-11-02T04:06:47.932Z,5.70
2018-11-02T04:09:19.074Z,5.62
2018-11-02T04:11:50.092Z,5.53
2018-11-02T04:14:21.973Z,5.53
2018-11-02T04:16:54.651Z,5.28
2018-11-02T04:19:27.550Z,5.60
2018-11-02T04:21:59.590Z,5.87
2018-11-02T04:24:31.827Z,4.92
2018-11-02T04:27:02.648Z,4.70
2018-11-02T04:29:33.731Z,4.80
2018-11-02T04:32:04.826Z,4.40
2018-11-02T04:34:35.988Z,4.30
2018-11-02T04:37:07.237Z,4.25
2018-11-02T04:39:38.344Z,4.20
2018-11-02T04:42:09.402Z,4.92
2018-11-02T04:44:40.441Z,4.50
2018-11-02T04:47:11.589Z,4.00
2018-11-02T04:49:42.827Z,4.55
2018-11-02T04:52:13.964Z,4.05
2018-11-02T04:54:45.029Z,3.98
2018-11-02T04:57:16.073Z,3.83
2018-11-02T04:59:47.308Z,4.00
2018-11-02T05:02:18.340Z,4.00
2018-11-02T05:04:49.501Z,3.63
2018-11-02T05:07:20.700Z,4.80
2018-11-02T05:09:51.951Z,4.20
2018-11-02T05:12:23.104Z,4.90
2018-11-02T05:14:54.152Z,4.12
2018-11-02T05:17:25.188Z,4.40
2018-11-02T05:19:56.372Z,4.45
2018-11-02T05:22:27.466Z,4.05
2018-11-02T05:24:58.768Z,4.00
2018-11-02T05:27:29.884Z,3.60
2018-11-02T05:30:01.132Z,3.83
2018-11-02T05:32:32.055Z,3.98
2018-11-02T05:35:03.607Z,4.72
2018-11-02T05:37:34.424Z,5.33
2018-11-02T05:40:08.087Z,5.15
2018-11-02T05:42:40.692Z,4.20
2018-11-02T05:45:11.752Z,5.15
2018-11-02T05:47:43.816Z,5.30
2018-11-02T05:50:15.427Z,3.58
2018-11-02T05:52:46.506Z,4.55
2018-11-02T05:55:17.587Z,4.20
2018-11-02T05:57:48.653Z,4.60
2018-11-02T06:00:19.767Z,4.80
2018-11-02T06:02:50.830Z,6.30
2018-11-02T06:05:21.748Z,5.50
2018-11-02T06:07:52.727Z,5.05
2018-11-02T06:10:23.667Z,5.75
2018-11-02T06:12:54.772Z,5.03
2018-11-02T06:15:25.843Z,4.85
2018-11-02T06:17:56.953Z,4.75
2018-11-02T06:20:28.361Z,4.70
2018-11-02T06:22:59.543Z,4.62
2018-11-02T06:25:30.569Z,4.30
2018-11-02T06:28:01.755Z,4.47
2018-11-02T06:30:32.609Z,4.28
2018-11-02T06:33:03.837Z,5.58
2018-11-02T06:35:35.136Z,4.28
2018-11-02T06:38:06.753Z,4.40
2018-11-02T06:40:38.052Z,4.40
2018-11-02T06:43:10.220Z,5.10
2018-11-02T06:45:41.440Z,4.85
2018-11-02T06:48:12.580Z,5.30
2018-11-02T06:50:44.198Z,5.15
2018-11-02T06:53:15.256Z,6.12
2018-11-02T06:55:48.200Z,5.50
2018-11-02T06:58:18.879Z,5.67
2018-11-02T07:00:49.406Z,5.30
2018-11-02T07:03:20.802Z,5.20
2018-11-02T07:05:52.273Z,5.73
2018-11-02T07:08:23.859Z,5.05
2018-11-02T07:10:55.020Z,5.60
2018-11-02T07:13:27.556Z,4.97
2018-11-02T07:15:58.767Z,5.67
2018-11-02T07:18:29.889Z,6.10
2018-11-02T07:21:01.019Z,6.00
2018-11-02T07:23:31.932Z,6.33
2018-11-02T07:26:02.981Z,5.67
2018-11-02T07:28:35.227Z,5.97
2018-11-02T07:31:07.951Z,6.13
2018-11-02T07:33:39.316Z,6.03
2018-11-02T07:36:10.033Z,6.10
2018-11-02T07:39:03.084Z,5.80
2018-11-02T07:41:39.352Z,5.40
2018-11-02T07:44:10.127Z,5.50
2018-11-02T07:46:41.599Z,6.53
2018-11-02T07:49:12.176Z,9.17
2018-11-02T07:51:42.722Z,6.50
2018-11-02T07:54:14.267Z,5.77
2018-11-02T07:56:44.974Z,5.20
2018-11-02T07:59:15.760Z,5.53
2018-11-02T08:01:47.294Z,5.97
2018-11-02T08:04:19.056Z,5.20
2018-11-02T08:06:50.356Z,6.20
2018-11-02T08:09:21.300Z,5.90
2018-11-02T08:11:52.137Z,6.00
2018-11-02T08:14:22.949Z,6.30
2018-11-02T08:16:53.746Z,6.03
2018-11-02T08:19:24.303Z,6.30
2018-11-02T08:21:54.881Z,5.73
2018-11-02T08:24:25.819Z,11.83
2018-11-02T08:26:57.004Z,8.23
2018-11-02T08:29:28.310Z,21.13
2018-11-02T08:31:58.988Z,8.77
2018-11-02T08:34:29.957Z,6.13
2018-11-02T08:37:00.768Z,6.40
2018-11-02T08:39:31.833Z,6.60
2018-11-02T08:42:03.799Z,6.77
2018-11-02T08:44:40.080Z,6.00
2018-11-02T08:47:12.497Z,5.27
2018-11-02T08:49:44.068Z,4.67
2018-11-02T08:52:15.295Z,5.87
2018-11-02T08:54:46.189Z,5.33
2018-11-02T08:57:17.917Z,6.30
2018-11-02T08:59:48.581Z,5.33
2018-11-02T09:02:19.535Z,5.60
2018-11-02T09:04:50.277Z,5.07
2018-11-02T09:07:21.116Z,5.37
2018-11-02T09:09:51.918Z,7.00
2018-11-02T09:12:22.780Z,8.80
2018-11-02T09:14:53.549Z,6.90
2018-11-02T09:17:24.171Z,5.80
2018-11-02T09:19:55.012Z,5.10
2018-11-02T09:22:25.881Z,4.90
2018-11-02T09:24:56.612Z,4.67
2018-11-02T09:27:27.289Z,4.00
2018-11-02T09:29:58.092Z,3.53
2018-11-02T09:32:30.155Z,3.47
2018-11-02T09:35:00.782Z,5.43
2018-11-02T09:37:31.934Z,5.43
2018-11-02T09:40:02.721Z,8.97
2018-11-02T09:42:33.522Z,5.80
2018-11-02T09:45:06.359Z,5.37
2018-11-02T09:47:37.203Z,4.60
2018-11-02T09:50:09.192Z,5.33
2018-11-02T09:52:40.273Z,5.13
2018-11-02T09:55:13.337Z,4.80
2018-11-02T09:57:46.473Z,3.90
2018-11-02T10:00:17.630Z,3.50
2018-11-02T10:02:51.931Z,3.83
2018-11-02T10:05:23.518Z,3.90
2018-11-02T10:07:55.558Z,4.07
2018-11-02T10:10:26.435Z,3.80
2018-11-02T10:12:57.313Z,3.60
2018-11-02T10:15:30.427Z,3.47
2018-11-02T10:18:01.653Z,3.63
2018-11-02T10:20:32.595Z,3.30
2018-11-02T10:23:03.880Z,3.20
2018-11-02T10:25:34.584Z,2.80
2018-11-02T10:28:09.568Z,2.57
2018-11-02T10:30:40.475Z,2.47
2018-11-02T10:33:11.142Z,2.40
2018-11-02T10:35:42.496Z,2.53
2018-11-02T10:38:14.168Z,5.53
2018-11-02T10:40:49.703Z,6.97
2018-11-02T10:43:21.424Z,3.03
2018-11-02T10:46:00.787Z,4.77
2018-11-02T10:48:33.908Z,4.90
2018-11-02T10:51:05.304Z,2.07
2018-11-02T10:53:36.796Z,1.90
2018-11-02T10:56:07.628Z,1.30
2018-11-02T10:58:41.328Z,2.13
2018-11-02T11:01:17.284Z,1.60
2018-11-02T11:03:48.052Z,1.63
2018-11-02T11:06:19.687Z,1.53
2018-11-02T11:08:50.660Z,1.30
2018-11-02T11:11:21.663Z,1.90
2018-11-02T11:13:52.204Z,1.60
2018-11-02T11:16:23.030Z,1.63
2018-11-02T11:18:53.780Z,1.90
2018-11-02T11:21:25.210Z,1.80
2018-11-02T11:23:56.363Z,1.80
2018-11-02T11:26:27.205Z,1.70
2018-11-02T11:28:58.326Z,1.90
2018-11-02T11:31:29.204Z,2.10
2018-11-02T11:34:00.704Z,1.70
2018-11-02T11:36:31.659Z,1.77
2018-11-02T11:39:02.819Z,2.53
2018-11-02T11:41:34.646Z,2.33
2018-11-02T11:44:06.435Z,2.50
2018-11-02T11:46:39.769Z,2.50
2018-11-02T11:49:13.556Z,3.80
2018-11-02T11:51:45.580Z,3.73
2018-11-02T11:54:16.489Z,3.60
2018-11-02T11:56:47.344Z,3.30
2018-11-02T11:59:18.169Z,3.77
2018-11-02T12:01:49.023Z,3.17
2018-11-02T12:04:20.072Z,3.90
2018-11-02T12:06:52.705Z,3.20
2018-11-02T12:09:23.731Z,3.10
2018-11-02T12:11:55.087Z,3.30
2018-11-02T12:14:26.297Z,3.10
2018-11-02T12:16:57.499Z,3.40
2018-11-02T12:19:28.364Z,3.70
2018-11-02T12:21:59.456Z,4.33
2018-11-02T12:24:30.419Z,4.00
2018-11-02T12:27:01.448Z,3.97
2018-11-02T12:29:32.403Z,4.20
2018-11-02T12:32:03.476Z,4.07
2018-11-02T12:34:35.534Z,4.30
2018-11-02T12:37:06.756Z,3.77
2018-11-02T12:39:41.216Z,3.70
2018-11-02T12:42:12.616Z,4.27
2018-11-02T12:44:47.394Z,4.27
2018-11-02T12:47:18.512Z,4.23
2018-11-02T12:49:49.930Z,4.23
2018-11-02T12:52:20.993Z,4.13
2018-11-02T12:54:52.160Z,4.80
2018-11-02T12:57:26.008Z,4.73
2018-11-02T13:00:00.706Z,4.43
2018-11-02T13:02:32.817Z,4.73
2018-11-02T13:05:03.893Z,4.73
2018-11-02T13:07:34.699Z,4.60
2018-11-02T13:10:08.756Z,4.17
2018-11-02T13:12:39.870Z,5.27
2018-11-02T13:15:13.095Z,5.70
2018-11-02T13:17:44.804Z,5.40
2018-11-02T13:20:15.916Z,6.17
2018-11-02T13:22:47.764Z,6.60
2018-11-02T13:25:19.988Z,5.33
2018-11-02T13:27:52.972Z,4.90
2018-11-02T13:30:25.177Z,6.13
2018-11-02T13:32:58.848Z,6.17
2018-11-02T13:35:29.972Z,5.30
2018-11-02T13:38:04.361Z,4.63
2018-11-02T13:40:35.790Z,4.53
2018-11-02T13:43:08.989Z,3.80
2018-11-02T13:45:40.115Z,3.20
2018-11-02T13:48:11.116Z,3.70
2018-11-02T13:50:42.183Z,3.97
2018-11-02T13:53:13.033Z,3.17
2018-11-02T13:55:45.107Z,2.90
2018-11-02T13:58:16.092Z,3.67
2018-11-02T14:00:47.353Z,4.20
2018-11-02T14:03:18.203Z,11.77
2018-11-02T14:05:49.040Z,3.90
2018-11-02T14:08:23.210Z,3.80
2018-11-02T14:10:53.943Z,4.97
2018-11-02T14:13:24.933Z,4.43
2018-11-02T14:15:55.849Z,4.00
2018-11-02T14:18:27.907Z,7.40
2018-11-02T14:20:59.012Z,6.90
2018-11-02T14:23:33.797Z,4.20
2018-11-02T14:26:07.721Z,3.77
2018-11-02T14:28:41.404Z,4.43
2018-11-02T14:31:14.798Z,3.87
2018-11-02T14:33:45.628Z,7.50
2018-11-02T14:36:17.421Z,3.80
2018-11-02T14:38:48.336Z,4.37
2018-11-02T14:41:21.611Z,3.60
2018-11-02T14:43:52.437Z,3.57
2018-11-02T14:46:26.396Z,4.37
2018-11-02T14:48:57.209Z,4.10
2018-11-02T14:51:28.213Z,3.93
2018-11-02T14:53:59.196Z,4.40
2018-11-02T14:56:30.424Z,4.90
2018-11-02T14:59:01.476Z,3.83
2018-11-02T15:01:33.995Z,5.00
2018-11-02T15:04:05.272Z,4.73
2018-11-02T15:06:39.896Z,4.73
2018-11-02T15:09:12.752Z,4.40
2018-11-02T15:11:43.893Z,4.83
2018-11-02T15:14:16.021Z,4.97
2018-11-02T15:16:48.508Z,5.10
2018-11-02T15:19:19.337Z,5.70
2018-11-02T15:21:51.069Z,6.70
2018-11-02T15:24:21.913Z,6.07
2018-11-02T15:26:57.775Z,5.67
2018-11-02T15:29:28.596Z,5.70
2018-11-02T15:32:00.131Z,5.70
2018-11-02T15:34:31.020Z,6.67
2018-11-02T15:37:02.608Z,7.47
2018-11-02T15:39:33.607Z,6.30
2018-11-02T15:42:04.420Z,6.47
2018-11-02T15:44:35.523Z,6.33
2018-11-02T15:47:07.122Z,6.10
2018-11-02T15:49:38.413Z,6.03
2018-11-02T15:52:09.200Z,6.33
2018-11-02T15:54:40.234Z,6.23
2018-11-02T15:57:11.061Z,6.43
2018-11-02T15:59:41.963Z,5.40
2018-11-02T16:02:13.640Z,6.13
2018-11-02T16:04:44.905Z,7.50
2018-11-02T16:07:15.836Z,6.77
2018-11-02T16:09:47.376Z,6.73
2018-11-02T16:12:19.036Z,6.10
2018-11-02T16:14:50.615Z,7.23
2018-11-02T16:17:22.228Z,6.50
2018-11-02T16:19:53.743Z,10.30
2018-11-02T16:22:25.063Z,13.27
2018-11-02T16:24:56.192Z,9.70
2018-11-02T16:27:29.313Z,7.10
2018-11-02T16:30:01.147Z,12.40
2018-11-02T16:32:31.985Z,9.70
2018-11-02T16:35:03.311Z,7.50
2018-11-02T16:37:34.179Z,7.07
2018-11-02T16:40:06.313Z,7.30
2018-11-02T16:42:37.252Z,8.00
2018-11-02T16:45:10.992Z,7.50
2018-11-02T16:47:42.256Z,6.40
2018-11-02T16:50:14.453Z,7.40
2018-11-02T16:52:45.730Z,6.40
2018-11-02T16:55:16.651Z,5.40
2018-11-02T16:57:47.712Z,5.63
2018-11-02T17:00:19.562Z,6.90
2018-11-02T17:02:50.356Z,6.47
2018-11-02T17:05:21.340Z,5.97
2018-11-02T17:07:52.252Z,6.87
2018-11-02T17:10:23.215Z,6.97
2018-11-02T17:12:53.871Z,6.23
2018-11-02T17:15:24.875Z,10.47
2018-11-02T17:17:55.732Z,6.73
2018-11-02T17:20:26.644Z,6.20
2018-11-02T17:22:57.554Z,5.43
2018-11-02T17:25:28.488Z,6.40
2018-11-02T17:27:59.849Z,6.50
2018-11-02T17:30:30.962Z,8.60
2018-11-02T17:33:04.282Z,9.77
2018-11-02T17:35:35.893Z,9.17
2018-11-02T17:38:08.667Z,8.10
2018-11-02T17:40:40.051Z,5.93
2018-11-02T17:43:13.232Z,6.20
2018-11-02T17:45:48.441Z,8.20
2018-11-02T17:48:19.303Z,7.67
2018-11-02T17:50:50.009Z,7.60
2018-11-02T17:53:20.824Z,8.00
2018-11-02T17:55:51.576Z,11.30
2018-11-02T17:58:25.760Z,17.97
2018-11-02T18:00:56.876Z,16.77
2018-11-02T18:03:27.904Z,18.87
2018-11-02T18:05:58.824Z,19.37
2018-11-02T18:08:29.863Z,21.17
2018-11-02T18:11:00.675Z,16.17
2018-11-02T18:13:31.484Z,16.17
2018-11-02T18:16:02.430Z,15.60
2018-11-02T18:18:33.275Z,10.47
2018-11-02T18:21:04.296Z,9.80
2018-11-02T18:23:35.275Z,12.60
2018-11-02T18:26:06.867Z,16.20
2018-11-02T18:28:37.964Z,12.73
2018-11-02T18:31:09.510Z,12.20
2018-11-02T18:33:42.670Z,11.83
2018-11-02T18:36:13.741Z,11.70
2018-11-02T18:38:45.361Z,7.97
2018-11-02T18:41:18.382Z,7.80
2018-11-02T18:43:52.389Z,9.03
2018-11-02T18:46:24.643Z,8.43
2018-11-02T18:48:55.479Z,10.20
2018-11-02T18:51:27.360Z,11.00
2018-11-02T18:53:58.196Z,13.63
2018-11-02T18:56:28.843Z,12.27
2018-11-02T18:59:01.284Z,9.30
2018-11-02T19:01:32.091Z,9.80
2018-11-02T19:04:02.984Z,10.50
2018-11-02T19:06:34.020Z,9.57
2018-11-02T19:09:08.940Z,8.77
2018-11-02T19:11:39.984Z,10.43
2018-11-02T19:14:10.796Z,9.43
2018-11-02T19:16:41.861Z,15.00
2018-11-02T19:19:12.681Z,14.50
2018-11-02T19:21:44.008Z,13.37
2018-11-02T19:24:14.969Z,12.90
2018-11-02T19:26:45.942Z,13.40
2018-11-02T19:29:21.067Z,13.40
2018-11-02T19:31:56.720Z,12.90
2018-11-02T19:34:27.742Z,11.47
2018-11-02T19:36:59.634Z,10.60
2018-11-02T19:39:31.256Z,12.70
2018-11-02T19:42:02.388Z,12.93
2018-11-02T19:44:33.116Z,20.50
2018-11-02T19:47:04.239Z,96.23
2018-11-02T19:49:35.077Z,31.17
2018-11-02T19:52:06.277Z,17.87
2018-11-02T19:54:37.190Z,14.03
2018-11-02T19:57:07.959Z,13.20
2018-11-02T19:59:38.964Z,9.50
2018-11-02T20:02:11.508Z,10.17
2018-11-02T20:04:42.088Z,10.10
2018-11-02T20:07:13.127Z,10.00
2018-11-02T20:09:43.876Z,11.83
2018-11-02T20:12:14.773Z,11.50
2018-11-02T20:14:45.688Z,15.20
2018-11-02T20:17:16.535Z,26.70
2018-11-02T20:19:47.405Z,17.63
2018-11-02T20:22:17.793Z,16.37
2018-11-02T20:24:50.297Z,20.50
2018-11-02T20:27:21.288Z,18.00
2018-11-02T20:29:52.323Z,16.53
2018-11-02T20:32:23.444Z,15.10
2018-11-02T20:34:54.352Z,15.47
2018-11-02T20:37:25.393Z,14.63
2018-11-02T20:39:56.141Z,14.20
2018-11-02T20:42:27.084Z,12.30
2018-11-02T20:44:57.771Z,13.70
2018-11-02T20:47:32.772Z,13.93
2018-11-02T20:50:07.577Z,14.70
2018-11-02T20:52:41.246Z,14.20
2018-11-02T20:55:13.695Z,13.93
2018-11-02T20:57:44.536Z,12.47
2018-11-02T21:00:17.316Z,12.90
2018-11-02T21:02:48.255Z,12.80
2018-11-02T21:05:20.109Z,12.00
2018-11-02T21:07:52.017Z,12.20
2018-11-02T21:10:23.283Z,13.47
2018-11-02T21:12:54.589Z,12.90
2018-11-02T21:15:26.114Z,12.20
2018-11-02T21:17:57.225Z,11.57
2018-11-02T21:20:28.297Z,10.47
2018-11-02T21:22:59.175Z,11.20
2018-11-02T21:25:30.128Z,12.90
2018-11-02T21:28:01.029Z,13.70
2018-11-02T21:30:31.981Z,12.30
2018-11-02T21:33:03.021Z,12.77
2018-11-02T21:35:33.863Z,12.37
2018-11-02T21:38:04.815Z,13.43
2018-11-02T21:40:35.936Z,12.27
2018-11-02T21:43:06.915Z,11.93
2018-11-02T21:45:38.797Z,13.40
2018-11-02T21:48:11.101Z,12.90
2018-11-02T21:50:42.166Z,14.20
2018-11-02T21:53:13.608Z,14.67
2018-11-02T21:55:44.662Z,13.23
2018-11-02T21:58:16.755Z,12.50
2018-11-02T22:00:47.789Z,11.93
2018-11-02T22:03:19.509Z,13.00
2018-11-02T22:05:54.101Z,16.10
2018-11-02T22:08:26.563Z,14.47
2018-11-02T22:10:57.437Z,13.77
2018-11-02T22:13:28.477Z,15.30
2018-11-02T22:15:59.208Z,14.83
2018-11-02T22:18:30.267Z,15.10
2018-11-02T22:21:07.668Z,14.33
2018-11-02T22:23:38.500Z,14.00
2018-11-02T22:26:09.603Z,13.13
2018-11-02T22:28:43.925Z,13.53
2018-11-02T22:31:17.315Z,13.37
2018-11-02T22:33:49.262Z,13.43
2018-11-02T22:36:21.681Z,14.83
2018-11-02T22:38:52.914Z,14.27
2018-11-02T22:41:24.261Z,14.40
2018-11-02T22:43:56.229Z,16.30
2018-11-02T22:46:27.600Z,14.00
2018-11-02T22:49:01.040Z,13.10
2018-11-02T22:51:32.887Z,12.27
2018-11-02T22:54:04.090Z,11.50
2018-11-02T22:56:34.871Z,12.00
2018-11-02T22:59:05.550Z,12.30
2018-11-02T23:01:36.531Z,11.57
2018-11-02T23:04:07.435Z,10.13
2018-11-02T23:06:38.684Z,10.50
2018-11-02T23:09:10.779Z,10.83
2018-11-02T23:11:41.644Z,10.43
2018-11-02T23:14:12.616Z,10.27
2018-11-02T23:16:43.608Z,10.60
2018-11-02T23:19:14.548Z,9.93
2018-11-02T23:21:45.350Z,10.07
2018-11-02T23:24:16.327Z,8.80
2018-11-02T23:26:47.179Z,10.50
2018-11-02T23:29:18.005Z,9.50
2018-11-02T23:31:49.028Z,9.93
2018-11-02T23:34:19.885Z,9.70
2018-11-02T23:36:51.850Z,9.77
2018-11-02T23:39:22.755Z,9.40
2018-11-02T23:41:53.725Z,9.00
2018-11-02T23:44:24.763Z,9.77
2018-11-02T23:46:55.592Z,9.60
2018-11-02T23:49:26.411Z,8.77
2018-11-02T23:51:57.631Z,9.83
2018-11-02T23:54:28.499Z,8.90
2018-11-02T23:57:00.492Z,8.37
2018-11-02T23:59:31.764Z,8.87
